Time;durP1;ratioP1;P1;durP2;ratioP2;P2;SDS_P1;SDS_P2;PMS_P1;PMS_P2;Temp;Humidity;BMP_temperature;BMP_pressure;BME280_temperature;BME280_humidity;BME280_pressure;Samples;Min_cycle;Max_cycle;Signal;HPM_P1;HPM_P2
2021/12/03 06:02:42;;;;;;;8.63;5.40;;;1.80;99.90;;;;;;4954469;28;20138;-78
2021/12/03 06:05:10;;;;;;;8.45;4.88;;;1.80;99.90;;;;;;4956655;29;20422;-77
2021/12/03 06:07:37;;;;;;;8.52;4.95;;;1.80;99.90;;;;;;4956454;29;20072;-77
2021/12/03 06:10:06;;;;;;;10.27;5.50;;;1.80;99.90;;;;;;4956363;29;20062;-77
2021/12/03 06:12:33;;;;;;;8.93;5.43;;;1.80;99.90;;;;;;4956740;28;20159;-80
2021/12/03 06:15:00;;;;;;;9.23;5.07;;;1.90;99.90;;;;;;4955854;29;20411;-77
2021/12/03 06:17:27;;;;;;;9.57;5.05;;;1.80;99.90;;;;;;4956002;29;20047;-77
2021/12/03 06:19:56;;;;;;;10.75;5.40;;;1.80;99.90;;;;;;4956065;29;20177;-78
2021/12/03 06:22:23;;;;;;;9.45;5.40;;;1.80;99.90;;;;;;4956225;29;20129;-78
2021/12/03 06:24:50;;;;;;;9.35;5.55;;;1.80;99.90;;;;;;4956023;29;20058;-76
2021/12/03 06:27:17;;;;;;;9.00;5.03;;;1.80;99.90;;;;;;4956141;29;20047;-77
2021/12/03 06:29:44;;;;;;;8.60;5.18;;;1.70;99.90;;;;;;4956580;29;20134;-79
2021/12/03 06:32:11;;;;;;;8.10;4.93;;;1.70;99.90;;;;;;4955780;29;20047;-77
2021/12/03 06:34:38;;;;;;;8.73;5.03;;;1.80;99.90;;;;;;4956225;29;20065;-79
2021/12/03 06:37:07;;;;;;;9.27;4.90;;;1.80;99.90;;;;;;4955948;29;20051;-78
2021/12/03 06:39:34;;;;;;;7.90;4.63;;;1.80;99.90;;;;;;4955836;29;20094;-80
2021/12/03 06:42:01;;;;;;;8.85;5.15;;;1.80;99.90;;;;;;4956179;29;20078;-79
2021/12/03 06:44:29;;;;;;;7.85;4.50;;;1.80;99.90;;;;;;4956731;29;20134;-79
2021/12/03 06:46:56;;;;;;;8.43;4.75;;;1.80;99.90;;;;;;4956010;29;20492;-79
2021/12/03 06:49:24;;;;;;;7.93;4.88;;;1.80;99.90;;;;;;4956408;29;20102;-77
2021/12/03 06:51:52;;;;;;;8.95;4.63;;;1.80;99.90;;;;;;4955805;29;20086;-78
2021/12/03 06:54:26;;;;;;;8.13;5.22;;;1.80;99.90;;;;;;4955781;29;20051;-79
2021/12/03 06:56:54;;;;;;;8.65;4.97;;;1.80;99.90;;;;;;4955922;29;20047;-78
2021/12/03 06:59:22;;;;;;;8.63;5.07;;;1.90;99.90;;;;;;4956732;28;20061;-77
2021/12/03 07:01:51;;;;;;;9.10;5.20;;;1.90;99.90;;;;;;4955152;29;20163;-77
2021/12/03 07:04:18;;;;;;;8.30;5.13;;;1.90;99.90;;;;;;4955172;29;20047;-78
2021/12/03 07:06:45;;;;;;;7.63;4.63;;;1.90;99.90;;;;;;4954799;29;20134;-80
2021/12/03 07:09:13;;;;;;;7.85;4.80;;;1.90;99.90;;;;;;4954623;29;20047;-79
2021/12/03 07:11:42;;;;;;;8.95;4.80;;;1.90;99.90;;;;;;4954796;29;20048;-79
2021/12/03 07:14:09;;;;;;;8.73;4.85;;;1.90;99.90;;;;;;4954203;29;20481;-80
2021/12/03 07:16:36;;;;;;;9.77;5.00;;;1.90;99.90;;;;;;4954301;29;20082;-79
2021/12/03 07:19:04;;;;;;;8.40;4.82;;;2.00;99.90;;;;;;4954643;29;20134;-80
2021/12/03 07:21:31;;;;;;;9.60;5.15;;;2.00;99.90;;;;;;4954581;29;20138;-79
2021/12/03 07:23:59;;;;;;;7.90;4.75;;;2.00;99.90;;;;;;4955201;29;20182;-79
2021/12/03 07:26:27;;;;;;;8.70;4.55;;;2.00;99.90;;;;;;4955961;29;20142;-79
2021/12/03 07:28:55;;;;;;;7.85;4.72;;;2.00;99.90;;;;;;4960288;29;20126;-78
2021/12/03 07:31:22;;;;;;;7.82;4.50;;;2.00;99.90;;;;;;4957151;29;20057;-78
2021/12/03 07:33:50;;;;;;;7.60;4.93;;;2.00;99.90;;;;;;4955452;29;20569;-79
2021/12/03 07:36:17;;;;;;;7.35;4.57;;;2.00;99.90;;;;;;4955131;29;20067;-79
2021/12/03 07:38:44;;;;;;;8.65;4.85;;;1.90;99.90;;;;;;4955750;29;20142;-80
2021/12/03 07:41:11;;;;;;;8.73;4.75;;;1.90;99.90;;;;;;4955459;29;20054;-78
2021/12/03 07:43:38;;;;;;;8.05;4.70;;;1.90;99.90;;;;;;4955515;29;20139;-79
2021/12/03 07:46:07;;;;;;;8.93;4.68;;;1.90;99.90;;;;;;4954445;29;20142;-80
2021/12/03 07:48:35;;;;;;;9.30;4.82;;;1.90;99.90;;;;;;4954091;29;20055;-79
2021/12/03 07:51:03;;;;;;;8.07;4.80;;;1.90;99.90;;;;;;4954583;29;20408;-79
2021/12/03 07:53:30;;;;;;;9.05;5.00;;;1.90;99.90;;;;;;4954624;29;20052;-76
2021/12/03 07:55:57;;;;;;;8.73;4.72;;;1.90;99.90;;;;;;4954972;29;20082;-78
2021/12/03 07:58:24;;;;;;;8.18;4.78;;;1.90;99.90;;;;;;4954173;29;20067;-79
2021/12/03 08:00:54;;;;;;;10.02;4.88;;;1.90;99.90;;;;;;4952982;28;20147;-79
2021/12/03 08:03:22;;;;;;;10.45;5.00;;;1.90;99.90;;;;;;4972958;28;20046;-78
2021/12/03 08:05:50;;;;;;;8.00;4.70;;;1.90;99.90;;;;;;4965441;28;20463;-79
2021/12/03 08:08:22;;;;;;;8.15;5.03;;;1.90;99.90;;;;;;4964515;28;20079;-78
2021/12/03 08:10:50;;;;;;;8.32;4.72;;;1.90;99.90;;;;;;4974749;28;20063;-79
2021/12/03 08:13:17;;;;;;;7.50;4.50;;;1.90;99.90;;;;;;4976564;28;20503;-79
2021/12/03 08:15:44;;;;;;;8.52;4.75;;;2.00;99.90;;;;;;4976834;28;20086;-80
2021/12/03 08:18:12;;;;;;;9.30;4.85;;;1.90;99.90;;;;;;4976609;28;20138;-79
2021/12/03 08:20:41;;;;;;;7.45;4.30;;;2.00;99.90;;;;;;4976786;28;20051;-79
2021/12/03 08:23:08;;;;;;;7.75;4.43;;;2.00;99.90;;;;;;4976513;28;20058;-81
2021/12/03 08:25:35;;;;;;;7.35;4.45;;;2.00;99.90;;;;;;4957890;28;20086;-78
2021/12/03 08:28:04;;;;;;;10.07;4.72;;;2.00;99.90;;;;;;4956945;29;20596;-77
2021/12/03 08:30:31;;;;;;;8.10;4.50;;;2.10;99.90;;;;;;4957571;29;20043;-79
2021/12/03 08:32:59;;;;;;;7.95;4.60;;;2.10;99.90;;;;;;4957461;29;20083;-79
2021/12/03 08:35:27;;;;;;;9.95;4.72;;;2.10;99.90;;;;;;4955728;29;20061;-78
2021/12/03 08:37:56;;;;;;;6.65;4.32;;;2.10;99.90;;;;;;4956537;29;20051;-79
2021/12/03 08:40:24;;;;;;;9.25;4.45;;;2.10;99.90;;;;;;4956237;28;20059;-78
2021/12/03 08:42:52;;;;;;;7.85;4.60;;;2.10;99.90;;;;;;4955893;29;20074;-78
2021/12/03 08:45:21;;;;;;;8.77;4.50;;;2.20;99.90;;;;;;4956280;29;20082;-78
2021/12/03 08:47:51;;;;;;;8.02;4.45;;;2.20;99.90;;;;;;4956020;29;20405;-77
2021/12/03 08:50:27;;;;;;;7.25;4.18;;;2.30;99.90;;;;;;4956366;29;20093;-79
2021/12/03 08:55:47;;;;;;;9.30;4.10;;;2.30;99.90;;;;;;4901794;29;20527;-77
2021/12/03 08:58:16;;;;;;;7.47;4.03;;;2.40;99.90;;;;;;4956571;29;20138;-78
2021/12/03 09:00:45;;;;;;;6.03;3.53;;;2.40;99.90;;;;;;4963484;28;20050;-79
2021/12/03 09:03:12;;;;;;;5.88;3.50;;;2.40;99.90;;;;;;4975513;28;20058;-78
2021/12/03 09:05:40;;;;;;;8.25;3.92;;;2.40;99.90;;;;;;4971878;28;20051;-77
2021/12/03 09:08:08;;;;;;;6.90;3.72;;;2.40;99.90;;;;;;4956494;29;20082;-78
2021/12/03 09:10:36;;;;;;;6.13;3.30;;;2.50;99.90;;;;;;4955994;29;20124;-75
2021/12/03 09:13:03;;;;;;;9.55;4.00;;;2.50;99.70;;;;;;4956402;29;20047;-76
2021/12/03 09:15:37;;;;;;;7.03;3.20;;;2.50;99.30;;;;;;4959267;29;20048;-76
2021/12/03 09:20:56;;;;;;;5.85;3.30;;;2.50;99.30;;;;;;4955493;28;20047;-77
2021/12/03 09:23:33;;;;;;;8.02;3.70;;;2.60;99.10;;;;;;4955275;28;20404;-78
2021/12/03 09:26:06;;;;;;;6.53;3.55;;;2.60;98.90;;;;;;4955645;29;20130;-77
2021/12/03 09:28:35;;;;;;;6.28;3.28;;;2.60;99.00;;;;;;4955607;29;20047;-76
2021/12/03 09:31:02;;;;;;;6.85;3.50;;;2.60;99.10;;;;;;4955425;29;20055;-77
2021/12/03 09:33:31;;;;;;;6.28;3.47;;;2.60;99.40;;;;;;4955609;29;20153;-79
2021/12/03 09:36:02;;;;;;;6.13;3.80;;;2.70;99.20;;;;;;4955093;29;20048;-77
2021/12/03 09:38:34;;;;;;;6.75;3.47;;;2.60;98.90;;;;;;4955469;29;20559;-79
2021/12/03 09:41:06;;;;;;;6.97;3.58;;;2.70;98.90;;;;;;4955304;29;20074;-78
2021/12/03 09:43:36;;;;;;;6.28;3.30;;;2.70;99.10;;;;;;4955300;29;20047;-75
2021/12/03 09:46:10;;;;;;;7.63;4.00;;;2.70;99.30;;;;;;4955114;29;20047;-75
2021/12/03 09:48:53;;;;;;;8.25;3.38;;;2.70;99.10;;;;;;4955351;29;20048;-74
2021/12/03 09:51:20;;;;;;;9.93;3.75;;;2.70;98.80;;;;;;4954927;29;20054;-79
2021/12/03 09:56:34;;;;;;;6.47;3.42;;;2.80;98.60;;;;;;4954963;29;20070;-76
2021/12/03 10:01:56;;;;;;;6.95;3.53;;;2.80;97.70;;;;;;4900517;29;20057;-77
2021/12/03 10:10:26;;;;;;;6.10;3.28;;;2.70;97.90;;;;;;4951545;29;20050;-74
2021/12/03 10:12:56;;;;;;;6.53;2.95;;;2.80;97.80;;;;;;4935945;29;20106;-75
2021/12/03 10:15:27;;;;;;;7.93;3.70;;;2.80;97.70;;;;;;4952255;28;20053;-75
2021/12/03 10:18:05;;;;;;;7.22;3.05;;;2.70;97.70;;;;;;4974111;28;20499;-74
2021/12/03 10:20:43;;;;;;;4.63;2.70;;;2.80;97.80;;;;;;4973908;28;20065;-75
2021/12/03 10:43:50;;;;;;;6.28;2.92;;;2.90;96.50;;;;;;4953989;29;20047;-78
2021/12/03 10:46:45;;;;;;;6.03;3.03;;;2.90;97.00;;;;;;4954063;29;20062;-79
2021/12/03 10:49:25;;;;;;;;;;;3.00;96.90;;;;;;4954499;29;20055;-78
2021/12/03 10:52:04;;;;;;;6.13;3.13;;;3.00;96.60;;;;;;4953851;29;19922;-79
2021/12/03 11:37:14;;;;;;;8.90;3.40;;;3.80;94.90;;;;;;4952695;29;20052;-80
2021/12/03 12:19:32;;;;;;;4.90;2.42;;;5.20;94.30;;;;;;4956882;29;20106;-80
2021/12/03 13:09:08;;;;;;;3.70;1.83;;;14.00;53.60;;;;;;4908951;29;20572;-80
2021/12/03 13:20:35;;;;;;;4.43;1.42;;;15.50;48.00;;;;;;4956467;29;20066;-78
2021/12/03 14:05:32;;;;;;;4.38;1.40;;;13.10;45.40;;;;;;4951503;28;20042;-79
2021/12/03 14:37:10;;;;;;;3.22;1.58;;;9.40;63.80;;;;;;4971177;28;20075;-81
2021/12/03 14:40:09;;;;;;;4.60;1.80;;;9.40;64.60;;;;;;4935287;29;20083;-78
2021/12/03 14:42:54;;;;;;;4.57;1.50;;;8.90;65.30;;;;;;4948867;29;20051;-78
2021/12/03 14:45:37;;;;;;;3.92;1.52;;;9.10;66.20;;;;;;4955818;28;20425;-79
2021/12/03 14:56:25;;;;;;;4.05;1.63;;;8.00;67.90;;;;;;4935832;28;20440;-76
2021/12/03 14:59:10;;;;;;;3.28;1.50;;;8.60;66.70;;;;;;4952685;29;20533;-75
2021/12/03 15:01:45;;;;;;;4.03;1.50;;;8.80;65.70;;;;;;4952637;29;20175;-77
2021/12/03 15:07:15;;;;;;;3.95;1.48;;;8.50;66.00;;;;;;4894078;29;20045;-77
2021/12/03 15:09:44;;;;;;;4.10;1.80;;;8.20;65.90;;;;;;4940319;28;20054;-78
2021/12/03 15:23:33;;;;;;;3.70;1.33;;;7.20;67.60;;;;;;4932287;29;20055;-78
2021/12/03 15:26:06;;;;;;;5.28;1.60;;;7.00;68.00;;;;;;4953249;29;20338;-77
2021/12/03 15:29:11;;;;;;;3.30;1.35;;;6.90;68.50;;;;;;4952356;29;20063;-79
2021/12/03 15:57:18;;;;;;;4.88;1.70;;;5.50;66.50;;;;;;5084160;27;20898;-79
2021/12/03 16:05:38;;;;;;;2.80;1.20;;;5.30;69.60;;;;;;5090365;28;20104;-77
2021/12/03 16:08:14;;;;;;;3.97;1.70;;;5.30;69.60;;;;;;5057676;28;20059;-79
2021/12/03 16:10:50;;;;;;;4.22;1.60;;;5.20;69.70;;;;;;5067289;28;20476;-79
2021/12/03 16:13:28;;;;;;;3.75;1.50;;;5.20;70.30;;;;;;5066989;28;20075;-78
2021/12/03 16:24:52;;;;;;;4.07;1.70;;;5.00;72.30;;;;;;5051895;28;20048;-79
2021/12/03 16:43:58;;;;;;;4.63;1.92;;;4.70;75.30;;;;;;5052257;28;20591;-77
2021/12/03 16:46:39;;;;;;;5.25;2.10;;;4.60;75.80;;;;;;5066312;28;20375;-78
2021/12/03 16:51:51;;;;;;;4.90;1.95;;;4.60;77.10;;;;;;5069619;28;20426;-78
2021/12/03 16:54:24;;;;;;;4.07;1.80;;;4.50;78.20;;;;;;5067615;28;20052;-80
2021/12/03 16:56:53;;;;;;;5.50;2.10;;;4.50;78.00;;;;;;5067444;28;20053;-79
2021/12/03 16:59:22;;;;;;;3.97;2.00;;;4.50;78.50;;;;;;5068988;28;20076;-78
2021/12/03 17:01:55;;;;;;;4.82;1.70;;;4.50;79.00;;;;;;5067682;28;20497;-80
2021/12/03 17:04:47;;;;;;;5.25;2.30;;;4.50;79.20;;;;;;5087263;28;20048;-77
2021/12/03 17:18:59;;;;;;;5.55;2.40;;;4.50;79.70;;;;;;5053290;28;20190;-78
2021/12/03 17:47:41;;;;;;;3.78;1.70;;;4.40;81.10;;;;;;5130393;27;20391;-76
2021/12/03 17:50:25;;;;;;;3.75;1.65;;;4.40;81.60;;;;;;5109113;28;20078;-78
2021/12/03 17:58:32;;;;;;;5.72;1.80;;;4.30;82.30;;;;;;5107718;28;20065;-78
2021/12/03 18:01:04;;;;;;;4.32;1.70;;;4.30;82.40;;;;;;5107683;28;20047;-78
2021/12/03 18:03:39;;;;;;;3.45;1.50;;;4.30;82.30;;;;;;5109615;28;20047;-79
2021/12/03 18:09:26;;;;;;;4.25;2.00;;;4.30;81.60;;;;;;5106185;28;20040;-77
2021/12/03 18:12:18;;;;;;;4.22;1.80;;;4.30;81.20;;;;;;5089860;28;20053;-77
2021/12/03 18:53:37;;;;;;;4.15;1.65;;;4.10;83.70;;;;;;5104674;28;20058;-77
2021/12/03 18:56:08;;;;;;;4.45;1.92;;;4.00;83.80;;;;;;5105195;28;20744;-77
2021/12/03 18:58:36;;;;;;;4.07;1.90;;;4.10;84.20;;;;;;5091028;28;20505;-80
2021/12/03 19:01:04;;;;;;;4.15;1.85;;;4.10;83.90;;;;;;5090574;28;20052;-78
2021/12/03 19:03:40;;;;;;;4.55;2.00;;;4.10;84.60;;;;;;5090042;28;20432;-76
2021/12/03 19:06:16;;;;;;;4.70;2.17;;;4.20;85.90;;;;;;5091083;28;20047;-79
2021/12/03 19:08:49;;;;;;;5.22;2.28;;;4.20;86.20;;;;;;5091302;28;20040;-78
2021/12/03 19:11:20;;;;;;;4.18;2.00;;;4.20;86.70;;;;;;5091388;28;20503;-79
2021/12/03 19:13:47;;;;;;;4.38;2.20;;;4.10;87.30;;;;;;5091072;28;20040;-79
2021/12/03 19:16:16;;;;;;;6.10;2.80;;;4.10;87.80;;;;;;5089363;28;20455;-78
2021/12/03 19:18:48;;;;;;;5.90;2.40;;;4.10;85.60;;;;;;5087008;28;20044;-76
2021/12/03 19:21:19;;;;;;;4.40;2.17;;;4.10;85.90;;;;;;5091161;28;20059;-77
2021/12/03 19:23:48;;;;;;;4.22;2.05;;;4.10;86.50;;;;;;5090751;28;20158;-78
2021/12/03 19:26:15;;;;;;;3.75;2.00;;;4.00;86.90;;;;;;5089984;28;20090;-79
2021/12/03 19:28:42;;;;;;;4.05;2.05;;;4.00;86.50;;;;;;5089418;28;20503;-78
2021/12/03 19:31:09;;;;;;;4.82;2.22;;;4.00;85.90;;;;;;5090198;28;20131;-78
2021/12/03 19:33:36;;;;;;;4.75;2.33;;;4.00;85.50;;;;;;5090360;28;20126;-77
2021/12/03 19:36:05;;;;;;;6.28;2.58;;;4.00;85.80;;;;;;5090172;28;20055;-79
2021/12/03 19:38:36;;;;;;;4.82;2.47;;;4.10;85.10;;;;;;5089587;28;20044;-79
2021/12/03 19:41:12;;;;;;;5.28;2.33;;;4.10;85.20;;;;;;5090297;28;20079;-78
2021/12/03 19:43:43;;;;;;;6.13;2.45;;;4.10;85.10;;;;;;5090264;28;20052;-76
2021/12/03 19:46:14;;;;;;;5.00;2.60;;;4.20;85.10;;;;;;5089867;28;20059;-78
2021/12/03 19:48:44;;;;;;;5.72;2.75;;;4.20;84.70;;;;;;5089407;28;20051;-77
2021/12/03 19:51:14;;;;;;;5.70;2.67;;;4.20;84.60;;;;;;5090183;28;20060;-77
2021/12/03 19:53:50;;;;;;;5.85;2.67;;;4.20;84.20;;;;;;5090107;28;20105;-78
2021/12/03 19:56:18;;;;;;;4.60;2.60;;;4.20;84.10;;;;;;5089180;28;20083;-77
2021/12/03 19:58:45;;;;;;;7.25;2.88;;;4.20;84.00;;;;;;5088945;28;20058;-80
2021/12/03 20:01:12;;;;;;;4.68;2.40;;;4.30;84.30;;;;;;5089866;28;20131;-80
2021/12/03 20:03:39;;;;;;;5.13;2.75;;;4.30;84.90;;;;;;5089383;28;20044;-77
2021/12/03 20:06:06;;;;;;;6.45;2.90;;;4.30;84.10;;;;;;5089745;28;20048;-78
2021/12/03 20:08:35;;;;;;;5.85;2.80;;;4.30;83.60;;;;;;5088293;28;20074;-80
2021/12/03 20:11:06;;;;;;;4.97;2.58;;;4.30;83.60;;;;;;5088709;28;20109;-79
2021/12/03 20:13:35;;;;;;;5.40;2.40;;;4.30;83.00;;;;;;5089568;28;20052;-79
2021/12/03 20:16:12;;;;;;;5.90;2.67;;;4.30;82.70;;;;;;5089646;28;20089;-77
2021/12/03 20:18:43;;;;;;;5.60;2.92;;;4.30;82.50;;;;;;5088927;28;20063;-77
2021/12/03 20:21:11;;;;;;;5.82;3.08;;;4.30;82.00;;;;;;5089734;28;20101;-81
2021/12/03 20:23:44;;;;;;;4.55;2.72;;;4.30;81.40;;;;;;5089677;28;20474;-77
2021/12/03 20:26:34;;;;;;;5.90;2.70;;;4.30;81.60;;;;;;5088566;28;20562;-78
2021/12/03 20:29:06;;;;;;;6.28;2.85;;;4.30;81.50;;;;;;5088759;28;20056;-78
2021/12/03 20:31:36;;;;;;;5.50;3.05;;;4.30;81.50;;;;;;5089160;28;20134;-78
2021/12/03 20:34:10;;;;;;;6.38;3.03;;;4.30;81.10;;;;;;5088967;28;20143;-78
2021/12/03 20:36:50;;;;;;;9.95;5.55;;;4.30;80.70;;;;;;5087532;28;20146;-80
2021/12/03 20:39:20;;;;;;;14.60;7.60;;;4.30;80.30;;;;;;5088918;28;20485;-77
2021/12/03 20:41:54;;;;;;;10.75;6.97;;;4.30;80.50;;;;;;5088338;28;20054;-78
2021/12/03 20:44:50;;;;;;;10.70;6.65;;;4.30;80.30;;;;;;5089040;28;20498;-79
2021/12/03 20:52:52;;;;;;;4.65;2.60;;;4.40;80.20;;;;;;5085429;28;20109;-78
2021/12/03 21:08:55;;;;;;;5.75;2.72;;;4.50;80.50;;;;;;5087783;28;20417;-79
2021/12/03 21:11:26;;;;;;;4.68;2.30;;;4.50;80.90;;;;;;5088774;28;20048;-79
2021/12/03 21:13:58;;;;;;;4.78;2.28;;;4.50;81.40;;;;;;5087954;28;20044;-78
2021/12/03 21:16:53;;;;;;;4.40;2.50;;;4.50;81.60;;;;;;5088511;28;20052;-79
2021/12/03 21:19:33;;;;;;;5.10;2.75;;;4.50;81.90;;;;;;5074423;28;20055;-78
2021/12/03 21:22:04;;;;;;;5.07;2.47;;;4.50;82.60;;;;;;5069646;28;20060;-78
2021/12/03 21:24:34;;;;;;;5.07;2.60;;;4.50;83.10;;;;;;5088676;28;20508;-80
2021/12/03 21:27:07;;;;;;;4.55;2.10;;;4.60;83.60;;;;;;5088095;28;20142;-79
2021/12/03 21:32:28;;;;;;;4.55;2.30;;;4.60;84.40;;;;;;5056410;28;20044;-78
2021/12/03 21:40:53;;;;;;;5.05;2.50;;;4.60;84.80;;;;;;5088550;28;20100;-78
2021/12/03 21:43:15;;;;;;;4.72;2.60;;;4.60;84.80;;;;;;5086794;28;20517;-77
2021/12/03 21:45:43;;;;;;;5.40;2.92;;;4.60;84.60;;;;;;5087269;28;20131;-78
2021/12/03 21:48:12;;;;;;;5.47;2.17;;;4.70;84.90;;;;;;5087629;28;20134;-79
2021/12/03 21:50:40;;;;;;;9.10;4.57;;;4.70;84.90;;;;;;5088327;28;20528;-77
2021/12/03 21:53:08;;;;;;;6.78;3.45;;;4.70;84.50;;;;;;5090986;28;20127;-77
2021/12/03 21:55:39;;;;;;;5.30;2.90;;;4.70;84.60;;;;;;5092236;28;20131;-77
2021/12/03 21:58:06;;;;;;;4.20;2.50;;;4.70;84.50;;;;;;5092234;28;20419;-78
2021/12/03 22:00:34;;;;;;;6.57;2.75;;;4.70;84.50;;;;;;5091189;28;20054;-79
2021/12/03 22:03:01;;;;;;;4.65;2.33;;;4.60;84.40;;;;;;5091446;28;20058;-79
2021/12/03 22:05:30;;;;;;;5.93;2.60;;;4.60;85.20;;;;;;5091913;28;20055;-80
2021/12/03 22:07:57;;;;;;;6.88;2.83;;;4.60;85.00;;;;;;5091119;28;20046;-77
2021/12/03 22:10:25;;;;;;;5.55;2.70;;;4.60;84.80;;;;;;5091634;28;20467;-80
2021/12/03 22:12:52;;;;;;;4.90;2.60;;;4.60;85.10;;;;;;5091343;28;20046;-80
2021/12/03 22:15:21;;;;;;;6.55;3.15;;;4.70;86.00;;;;;;5091894;28;20074;-78
2021/12/03 22:17:48;;;;;;;5.63;2.83;;;4.80;87.30;;;;;;5092578;28;20048;-75
2021/12/03 22:20:15;;;;;;;5.07;2.60;;;4.80;88.90;;;;;;5091700;28;20505;-75
2021/12/03 22:22:44;;;;;;;4.68;2.38;;;4.70;88.30;;;;;;5090861;28;20067;-81
2021/12/03 22:25:11;;;;;;;4.75;2.45;;;4.70;88.50;;;;;;5091309;28;20400;-76
2021/12/03 22:27:38;;;;;;;6.28;2.40;;;4.70;88.30;;;;;;5091578;28;20052;-75
2021/12/03 22:30:07;;;;;;;4.90;2.80;;;4.60;88.20;;;;;;5091615;28;20072;-76
2021/12/03 22:32:35;;;;;;;7.22;2.65;;;4.70;88.20;;;;;;5092896;28;20127;-76
2021/12/03 22:35:02;;;;;;;5.82;2.20;;;4.80;88.60;;;;;;5095327;28;20477;-76
2021/12/03 22:37:29;;;;;;;4.57;2.10;;;4.70;88.90;;;;;;5095408;28;20144;-77
2021/12/03 22:39:59;;;;;;;5.30;2.00;;;4.70;88.90;;;;;;5095496;28;20131;-77
2021/12/03 22:42:26;;;;;;;5.05;2.10;;;4.80;88.60;;;;;;5094455;28;20093;-79
2021/12/03 22:44:53;;;;;;;5.38;2.63;;;4.70;88.10;;;;;;5094999;28;20056;-80
2021/12/03 22:47:31;;;;;;;4.10;1.92;;;4.80;87.70;;;;;;5096054;28;20142;-78
2021/12/03 22:52:40;;;;;;;5.22;2.38;;;4.80;87.30;;;;;;5086904;28;20044;-78
2021/12/03 22:55:13;;;;;;;4.18;2.28;;;4.80;87.40;;;;;;5093686;28;20044;-76
2021/12/03 22:57:40;;;;;;;4.43;2.20;;;4.80;87.40;;;;;;5094846;28;20067;-78
2021/12/03 23:00:29;;;;;;;4.10;2.30;;;4.80;87.60;;;;;;5094312;28;20047;-78
2021/12/03 23:02:57;;;;;;;5.95;2.30;;;4.80;87.80;;;;;;5094430;28;20044;-79
2021/12/03 23:05:24;;;;;;;4.72;2.35;;;4.90;87.60;;;;;;5094844;28;20090;-77
2021/12/03 23:07:52;;;;;;;4.85;2.33;;;4.80;87.30;;;;;;5092476;28;20054;-77
2021/12/03 23:10:21;;;;;;;5.78;2.28;;;4.90;87.60;;;;;;5091287;28;20076;-77
2021/12/03 23:12:48;;;;;;;4.85;2.33;;;4.90;87.90;;;;;;5091409;28;20048;-77
2021/12/03 23:15:15;;;;;;;4.53;2.40;;;4.90;88.10;;;;;;5090899;28;20050;-78
2021/12/03 23:17:42;;;;;;;4.95;2.50;;;4.80;88.20;;;;;;5091093;28;20048;-78
2021/12/03 23:20:10;;;;;;;4.57;2.35;;;4.90;88.30;;;;;;5073454;28;20086;-80
2021/12/03 23:22:37;;;;;;;5.05;2.50;;;4.90;88.20;;;;;;5071028;28;20131;-78
2021/12/03 23:25:07;;;;;;;5.15;2.30;;;4.90;88.70;;;;;;5089093;28;20122;-79
2021/12/03 23:27:35;;;;;;;4.30;2.20;;;4.90;89.00;;;;;;5090478;28;20534;-78
2021/12/03 23:30:03;;;;;;;4.07;2.10;;;4.90;89.30;;;;;;5091108;28;20128;-77
2021/12/03 23:32:31;;;;;;;4.93;2.45;;;4.90;89.70;;;;;;5091020;28;20640;-79
2021/12/03 23:34:58;;;;;;;4.15;2.30;;;4.90;89.60;;;;;;5090819;28;20043;-78
2021/12/03 23:37:25;;;;;;;4.45;2.40;;;4.90;88.90;;;;;;5090809;28;20135;-78
2021/12/03 23:39:52;;;;;;;4.10;2.05;;;4.80;89.30;;;;;;5090863;28;20044;-78
2021/12/03 23:42:19;;;;;;;5.38;2.42;;;4.90;90.20;;;;;;5090581;28;20370;-77
2021/12/03 23:44:48;;;;;;;4.80;2.40;;;4.90;90.50;;;;;;5090202;28;20136;-79
2021/12/03 23:47:15;;;;;;;4.07;2.13;;;4.90;90.60;;;;;;5050117;28;20433;-77
2021/12/03 23:49:43;;;;;;;3.85;2.00;;;4.90;91.10;;;;;;5050783;28;20079;-78
2021/12/03 23:52:10;;;;;;;4.35;2.10;;;4.80;91.40;;;;;;5050138;28;20464;-78
2021/12/03 23:54:39;;;;;;;5.47;2.10;;;4.90;91.40;;;;;;5050122;28;20075;-78
2021/12/03 23:57:09;;;;;;;5.10;2.00;;;4.80;91.20;;;;;;5050619;28;20135;-77
2021/12/03 23:59:39;;;;;;;5.20;2.30;;;4.80;91.40;;;;;;5050172;28;20088;-78
